createdAt,value
2018-11-02T00:02:03.309Z,7.90
2018-11-02T00:04:31.419Z,7.90
2018-11-02T00:06:59.684Z,8.00
2018-11-02T00:09:27.964Z,7.90
2018-11-02T00:11:56.137Z,8.00
2018-11-02T00:14:25.524Z,8.00
2018-11-02T00:16:54.203Z,8.00
2018-11-02T00:19:28.162Z,8.00
2018-11-02T00:21:56.423Z,8.00
2018-11-02T00:24:24.603Z,8.00
2018-11-02T00:26:53.377Z,7.90
2018-11-02T00:29:21.726Z,7.90
2018-11-02T00:31:50.007Z,8.00
2018-11-02T00:34:18.175Z,8.00
2018-11-02T00:36:46.492Z,8.00
2018-11-02T00:39:14.734Z,8.00
2018-11-02T00:41:42.861Z,8.10
2018-11-02T00:44:12.104Z,8.10
2018-11-02T00:46:40.322Z,8.10
2018-11-02T00:49:08.541Z,8.10
2018-11-02T00:51:37.560Z,8.10
2018-11-02T00:54:06.215Z,8.10
2018-11-02T00:56:34.423Z,8.10
2018-11-02T00:59:02.526Z,8.10
2018-11-02T01:01:30.955Z,8.10
2018-11-02T01:03:59.126Z,8.10
2018-11-02T01:06:27.484Z,8.10
2018-11-02T01:08:56.641Z,8.20
2018-11-02T01:11:24.875Z,8.20
2018-11-02T01:13:53.085Z,8.20
2018-11-02T01:16:21.365Z,8.20
2018-11-02T01:18:49.497Z,8.10
2018-11-02T01:21:17.841Z,8.10
2018-11-02T01:23:46.042Z,8.10
2018-11-02T01:26:14.333Z,8.10
2018-11-02T01:28:42.524Z,8.10
2018-11-02T01:31:10.846Z,8.10
2018-11-02T01:33:39.672Z,8.10
2018-11-02T01:36:08.978Z,8.10
2018-11-02T01:38:37.299Z,8.10
2018-11-02T01:41:05.706Z,8.10
2018-11-02T01:43:34.117Z,8.10
2018-11-02T01:46:02.535Z,8.20
2018-11-02T01:48:30.785Z,8.20
2018-11-02T01:50:59.073Z,8.20
2018-11-02T01:53:27.597Z,8.20
2018-11-02T01:55:55.765Z,8.30
2018-11-02T01:58:23.984Z,8.30
2018-11-02T02:00:52.226Z,8.30
2018-11-02T02:03:20.370Z,8.30
2018-11-02T02:05:48.526Z,8.30
2018-11-02T02:08:16.649Z,8.30
2018-11-02T02:10:45.115Z,8.40
2018-11-02T02:13:13.334Z,8.30
2018-11-02T02:15:41.363Z,8.40
2018-11-02T02:18:09.505Z,8.40
2018-11-02T02:20:37.637Z,8.50
2018-11-02T02:23:05.914Z,8.40
2018-11-02T02:25:34.183Z,8.50
2018-11-02T02:28:03.574Z,8.50
2018-11-02T02:30:31.949Z,8.50
2018-11-02T02:33:00.282Z,8.50
2018-11-02T02:35:28.543Z,8.50
2018-11-02T02:37:56.750Z,8.60
2018-11-02T02:40:25.789Z,8.60
2018-11-02T02:42:53.929Z,8.60
2018-11-02T02:45:22.020Z,8.60
2018-11-02T02:47:50.141Z,8.60
2018-11-02T02:50:18.439Z,8.60
2018-11-02T02:52:46.814Z,8.60
2018-11-02T02:55:15.004Z,8.60
2018-11-02T02:57:43.225Z,8.60
2018-11-02T03:00:13.053Z,8.60
2018-11-02T03:02:41.607Z,8.60
2018-11-02T03:05:10.164Z,8.60
2018-11-02T03:07:38.869Z,8.60
2018-11-02T03:10:07.286Z,8.60
2018-11-02T03:12:35.421Z,8.60
2018-11-02T03:15:03.610Z,8.60
2018-11-02T03:17:31.718Z,8.60
2018-11-02T03:20:00.810Z,8.50
2018-11-02T03:22:29.184Z,8.60
2018-11-02T03:24:57.301Z,8.50
2018-11-02T03:27:25.738Z,8.50
2018-11-02T03:29:54.774Z,8.50
2018-11-02T03:32:22.997Z,8.50
2018-11-02T03:34:51.177Z,8.50
2018-11-02T03:37:19.267Z,8.50
2018-11-02T03:39:47.517Z,8.50
2018-11-02T03:42:16.063Z,8.50
2018-11-02T03:44:45.052Z,8.50
2018-11-02T03:47:13.193Z,8.50
2018-11-02T03:49:41.401Z,8.50
2018-11-02T03:52:10.132Z,8.50
2018-11-02T03:54:38.506Z,8.50
2018-11-02T03:57:06.900Z,8.50
2018-11-02T03:59:35.819Z,8.40
2018-11-02T04:02:04.065Z,8.40
2018-11-02T04:04:32.253Z,8.40
2018-11-02T04:07:00.441Z,8.40
2018-11-02T04:09:28.633Z,8.40
2018-11-02T04:11:56.752Z,8.40
2018-11-02T04:14:24.975Z,8.40
2018-11-02T04:16:53.118Z,8.40
2018-11-02T04:19:21.864Z,8.40
2018-11-02T04:21:51.389Z,8.40
2018-11-02T04:24:19.565Z,8.40
2018-11-02T04:26:47.792Z,8.40
2018-11-02T04:29:16.962Z,8.40
2018-11-02T04:31:45.449Z,8.50
2018-11-02T04:34:14.202Z,8.50
2018-11-02T04:36:42.326Z,8.50
2018-11-02T04:39:13.896Z,8.50
2018-11-02T04:41:42.258Z,8.50
2018-11-02T04:44:11.084Z,8.40
2018-11-02T04:46:39.574Z,8.40
2018-11-02T04:49:07.921Z,8.40
2018-11-02T04:51:36.122Z,8.30
2018-11-02T04:54:04.317Z,8.40
2018-11-02T04:56:32.349Z,8.30
2018-11-02T04:59:00.559Z,8.30
2018-11-02T05:01:28.783Z,8.30
2018-11-02T05:03:56.890Z,8.30
2018-11-02T05:06:25.041Z,8.30
2018-11-02T05:08:53.188Z,8.30
2018-11-02T05:11:21.316Z,8.30
2018-11-02T05:13:49.414Z,8.30
2018-11-02T05:16:17.811Z,8.30
2018-11-02T05:18:45.925Z,8.30
2018-11-02T05:21:14.150Z,8.30
2018-11-02T05:23:42.261Z,8.30
2018-11-02T05:26:10.580Z,8.30
2018-11-02T05:28:39.165Z,8.30
2018-11-02T05:31:07.350Z,8.40
2018-11-02T05:33:35.465Z,8.30
2018-11-02T05:36:03.702Z,8.30
2018-11-02T05:38:31.995Z,8.30
2018-11-02T05:41:00.137Z,8.30
2018-11-02T05:43:28.864Z,8.40
2018-11-02T05:45:57.016Z,8.40
2018-11-02T05:48:25.273Z,8.40
2018-11-02T05:50:53.447Z,8.40
2018-11-02T05:53:21.648Z,8.40
2018-11-02T05:55:49.921Z,8.40
2018-11-02T05:58:18.152Z,8.40
2018-11-02T06:00:46.306Z,8.50
2018-11-02T06:03:14.524Z,8.50
2018-11-02T06:05:42.785Z,8.50
2018-11-02T06:08:10.929Z,8.50
2018-11-02T06:10:39.882Z,8.50
2018-11-02T06:13:08.160Z,8.40
2018-11-02T06:15:36.473Z,8.40
2018-11-02T06:18:04.673Z,8.40
2018-11-02T06:20:32.871Z,8.40
2018-11-02T06:23:01.241Z,8.40
2018-11-02T06:25:29.512Z,8.40
2018-11-02T06:27:57.641Z,8.40
2018-11-02T06:30:26.905Z,8.40
2018-11-02T06:32:55.045Z,8.40
2018-11-02T06:35:24.213Z,8.40
2018-11-02T06:37:52.600Z,8.40
2018-11-02T06:40:21.832Z,8.40
2018-11-02T06:42:49.913Z,8.40
2018-11-02T06:45:18.095Z,8.40
2018-11-02T06:47:46.406Z,8.40
2018-11-02T06:50:14.557Z,8.40
2018-11-02T06:52:43.366Z,8.40
2018-11-02T06:55:11.531Z,8.40
2018-11-02T06:57:39.943Z,8.40
2018-11-02T07:00:10.074Z,8.30
2018-11-02T07:02:38.153Z,8.30
2018-11-02T07:05:06.437Z,8.30
2018-11-02T07:07:34.862Z,8.30
2018-11-02T07:10:03.164Z,8.30
2018-11-02T07:12:31.451Z,8.30
2018-11-02T07:15:00.630Z,8.30
2018-11-02T07:17:28.883Z,8.30
2018-11-02T07:19:57.077Z,8.30
2018-11-02T07:22:25.411Z,8.30
2018-11-02T07:24:54.468Z,8.30
2018-11-02T07:27:23.274Z,8.30
2018-11-02T07:29:51.459Z,8.30
2018-11-02T07:32:20.452Z,8.30
2018-11-02T07:34:48.666Z,8.30
2018-11-02T07:37:16.898Z,8.30
2018-11-02T07:39:45.179Z,8.30
2018-11-02T07:42:14.398Z,8.30
2018-11-02T07:44:42.689Z,8.30
2018-11-02T07:47:10.861Z,8.30
2018-11-02T07:49:39.326Z,8.30
2018-11-02T07:52:07.877Z,8.30
2018-11-02T07:54:36.661Z,8.30
2018-11-02T07:57:04.857Z,8.30
2018-11-02T07:59:33.175Z,8.40
2018-11-02T08:02:01.671Z,8.40
2018-11-02T08:04:29.804Z,8.40
2018-11-02T08:06:57.936Z,8.40
2018-11-02T08:09:26.154Z,8.40
2018-11-02T08:11:54.356Z,8.40
2018-11-02T08:14:22.606Z,8.50
2018-11-02T08:16:50.868Z,8.50
2018-11-02T08:19:18.973Z,8.50
2018-11-02T08:21:48.051Z,8.50
2018-11-02T08:24:16.395Z,8.50
2018-11-02T08:26:44.576Z,8.50
2018-11-02T08:29:13.134Z,8.50
2018-11-02T08:31:41.293Z,8.60
2018-11-02T08:34:09.656Z,8.50
2018-11-02T08:36:37.901Z,8.50
2018-11-02T08:39:08.542Z,8.50
2018-11-02T08:41:36.686Z,8.50
2018-11-02T08:44:05.751Z,8.60
2018-11-02T08:46:34.218Z,8.60
2018-11-02T08:49:03.116Z,8.60
2018-11-02T08:51:31.412Z,8.60
2018-11-02T08:53:59.634Z,8.60
2018-11-02T08:56:28.041Z,8.70
2018-11-02T08:58:56.815Z,8.70
2018-11-02T09:01:24.985Z,8.60
2018-11-02T09:03:53.364Z,8.60
2018-11-02T09:06:21.750Z,8.60
2018-11-02T09:08:50.164Z,8.60
2018-11-02T09:11:18.473Z,8.60
2018-11-02T09:13:46.684Z,8.60
2018-11-02T09:16:15.504Z,8.60
2018-11-02T09:18:44.681Z,8.60
2018-11-02T09:21:12.881Z,8.60
2018-11-02T09:23:41.059Z,8.70
2018-11-02T09:26:09.209Z,8.60
2018-11-02T09:28:37.441Z,8.70
2018-11-02T09:31:05.852Z,8.70
2018-11-02T09:33:34.129Z,8.70
2018-11-02T09:36:02.633Z,8.70
2018-11-02T09:38:30.764Z,8.70
2018-11-02T09:40:58.856Z,8.60
2018-11-02T09:43:27.049Z,8.60
2018-11-02T09:45:55.852Z,8.60
2018-11-02T09:48:24.009Z,8.60
2018-11-02T09:50:52.353Z,8.60
2018-11-02T09:53:21.266Z,8.60
2018-11-02T09:55:49.364Z,8.60
2018-11-02T09:58:18.640Z,8.50
2018-11-02T10:00:46.841Z,8.60
2018-11-02T10:03:14.956Z,8.50
2018-11-02T10:05:43.335Z,8.60
2018-11-02T10:08:11.962Z,8.60
2018-11-02T10:10:40.252Z,8.60
2018-11-02T10:13:08.355Z,8.60
2018-11-02T10:15:36.484Z,8.70
2018-11-02T10:18:04.677Z,8.70
2018-11-02T10:20:32.889Z,8.70
2018-11-02T10:23:01.311Z,8.70
2018-11-02T10:25:29.385Z,8.70
2018-11-02T10:27:57.716Z,8.70
2018-11-02T10:30:25.871Z,8.70
2018-11-02T10:32:55.376Z,8.70
2018-11-02T10:35:23.883Z,8.70
2018-11-02T10:37:52.249Z,8.70
2018-11-02T10:40:20.374Z,8.70
2018-11-02T10:42:55.996Z,8.70
2018-11-02T10:45:25.025Z,8.70
2018-11-02T10:47:53.310Z,8.80
2018-11-02T10:50:22.324Z,8.80
2018-11-02T10:52:51.420Z,8.80
2018-11-02T10:55:20.257Z,8.80
2018-11-02T10:57:48.505Z,8.90
2018-11-02T11:00:22.036Z,8.90
2018-11-02T11:02:50.134Z,8.90
2018-11-02T11:05:18.289Z,8.90
2018-11-02T11:07:46.441Z,8.90
2018-11-02T11:10:14.677Z,9.00
2018-11-02T11:12:43.776Z,9.00
2018-11-02T11:15:12.000Z,9.00
2018-11-02T11:17:41.153Z,8.90
2018-11-02T11:20:10.208Z,8.90
2018-11-02T11:22:39.278Z,8.90
2018-11-02T11:25:08.261Z,8.90
2018-11-02T11:27:37.461Z,9.00
2018-11-02T11:30:10.402Z,9.00
2018-11-02T11:32:39.034Z,9.10
2018-11-02T11:35:09.022Z,9.20
2018-11-02T11:37:37.465Z,9.30
2018-11-02T11:40:06.834Z,9.40
2018-11-02T11:42:35.026Z,9.50
2018-11-02T11:45:04.497Z,9.60
2018-11-02T11:47:32.632Z,9.70
2018-11-02T11:50:00.911Z,9.70
2018-11-02T11:52:29.119Z,9.80
2018-11-02T11:54:57.430Z,9.90
2018-11-02T11:57:26.198Z,10.00
2018-11-02T11:59:55.301Z,10.00
2018-11-02T12:02:23.693Z,10.00
2018-11-02T12:04:51.890Z,10.10
2018-11-02T12:07:20.480Z,10.10
2018-11-02T12:09:48.671Z,10.00
2018-11-02T12:12:17.576Z,10.10
2018-11-02T12:14:45.774Z,10.10
2018-11-02T12:17:14.063Z,10.10
2018-11-02T12:19:42.973Z,10.00
2018-11-02T12:22:11.232Z,10.00
2018-11-02T12:24:39.398Z,10.00
2018-11-02T12:27:07.504Z,10.00
2018-11-02T12:29:35.677Z,10.00
2018-11-02T12:32:04.417Z,10.00
2018-11-02T12:34:32.619Z,9.90
2018-11-02T12:37:04.587Z,10.00
2018-11-02T12:39:32.856Z,9.90
2018-11-02T12:42:01.855Z,9.90
2018-11-02T12:44:30.013Z,9.90
2018-11-02T12:46:58.226Z,9.90
2018-11-02T12:49:26.691Z,10.00
2018-11-02T12:51:55.117Z,10.00
2018-11-02T12:54:23.392Z,10.00
2018-11-02T12:56:51.525Z,10.00
2018-11-02T12:59:20.090Z,10.00
2018-11-02T13:01:48.567Z,10.00
2018-11-02T13:04:16.755Z,10.00
2018-11-02T13:06:45.819Z,10.00
2018-11-02T13:09:14.149Z,10.00
2018-11-02T13:11:42.489Z,10.00
2018-11-02T13:14:11.201Z,10.00
2018-11-02T13:16:39.348Z,10.00
2018-11-02T13:19:07.526Z,9.90
2018-11-02T13:21:35.778Z,9.90
2018-11-02T13:24:03.944Z,9.90
2018-11-02T13:26:32.298Z,9.90
2018-11-02T13:29:00.605Z,9.90
2018-11-02T13:31:28.859Z,9.90
2018-11-02T13:33:56.944Z,9.90
2018-11-02T13:36:25.342Z,9.90
2018-11-02T13:38:53.838Z,9.90
2018-11-02T13:41:21.973Z,9.90
2018-11-02T13:43:50.276Z,9.90
2018-11-02T13:46:18.349Z,9.90
2018-11-02T13:48:47.002Z,9.90
2018-11-02T13:51:16.124Z,9.90
2018-11-02T13:53:44.605Z,9.90
2018-11-02T13:56:13.281Z,9.80
2018-11-02T13:58:41.497Z,9.80
2018-11-02T14:01:09.702Z,9.80
2018-11-02T14:03:37.853Z,9.80
2018-11-02T14:06:06.082Z,9.80
2018-11-02T14:08:34.253Z,9.80
2018-11-02T14:11:02.403Z,9.80
2018-11-02T14:13:30.619Z,9.70
2018-11-02T14:15:58.792Z,9.70
2018-11-02T14:18:27.044Z,9.70
2018-11-02T14:20:55.134Z,9.70
2018-11-02T14:23:23.786Z,9.70
2018-11-02T14:25:53.052Z,9.70
2018-11-02T14:28:21.193Z,9.70
2018-11-02T14:30:49.257Z,9.70
2018-11-02T14:33:17.479Z,9.70
2018-11-02T14:35:45.716Z,9.80
2018-11-02T14:38:14.456Z,9.80
2018-11-02T14:40:42.740Z,9.80
2018-11-02T14:43:11.988Z,9.80
2018-11-02T14:45:40.570Z,9.80
2018-11-02T14:48:08.800Z,9.80
2018-11-02T14:50:37.691Z,9.70
2018-11-02T14:53:05.932Z,9.70
2018-11-02T14:55:34.618Z,9.70
2018-11-02T14:58:02.873Z,9.60
2018-11-02T15:00:31.005Z,9.60
2018-11-02T15:02:59.918Z,9.50
2018-11-02T15:05:28.245Z,9.50
2018-11-02T15:07:58.266Z,9.40
2018-11-02T15:10:30.236Z,9.40
2018-11-02T15:12:58.421Z,9.40
2018-11-02T15:15:27.151Z,9.40
2018-11-02T15:17:56.209Z,9.40
2018-11-02T15:20:24.414Z,9.50
2018-11-02T15:22:52.596Z,9.40
2018-11-02T15:25:20.825Z,9.40
2018-11-02T15:27:50.239Z,9.40
2018-11-02T15:30:18.490Z,9.40
2018-11-02T15:32:46.623Z,9.40
2018-11-02T15:35:14.846Z,9.40
2018-11-02T15:37:44.086Z,9.40
2018-11-02T15:40:13.237Z,9.40
2018-11-02T15:42:42.765Z,9.40
2018-11-02T15:45:14.790Z,9.40
2018-11-02T15:47:43.305Z,9.40
2018-11-02T15:50:12.497Z,9.40
2018-11-02T15:52:41.240Z,9.30
2018-11-02T15:55:10.804Z,9.30
2018-11-02T15:57:40.091Z,9.40
2018-11-02T16:00:16.348Z,9.30
2018-11-02T16:02:45.770Z,9.30
2018-11-02T16:05:14.890Z,9.30
2018-11-02T16:07:43.384Z,9.30
2018-11-02T16:10:12.223Z,9.30
2018-11-02T16:12:40.923Z,9.30
2018-11-02T16:15:09.995Z,9.30
2018-11-02T16:17:38.567Z,9.30
2018-11-02T16:20:07.528Z,9.30
2018-11-02T16:22:36.829Z,9.30
2018-11-02T16:25:06.078Z,9.30
2018-11-02T16:27:34.164Z,9.30
2018-11-02T16:30:02.484Z,9.30
2018-11-02T16:32:31.392Z,9.30
2018-11-02T16:34:59.740Z,9.30
2018-11-02T16:37:28.578Z,9.40
2018-11-02T16:39:56.817Z,9.30
2018-11-02T16:42:26.057Z,9.40
2018-11-02T16:44:54.373Z,9.40
2018-11-02T16:47:22.473Z,9.30
2018-11-02T16:49:50.610Z,9.30
2018-11-02T16:52:18.801Z,9.40
2018-11-02T16:54:49.320Z,9.30
2018-11-02T16:57:17.584Z,9.30
2018-11-02T16:59:45.740Z,9.30
2018-11-02T17:02:13.909Z,9.20
2018-11-02T17:04:42.087Z,9.10
2018-11-02T17:07:12.319Z,9.10
2018-11-02T17:09:41.580Z,9.00
2018-11-02T17:12:09.719Z,9.00
2018-11-02T17:14:37.873Z,8.90
2018-11-02T17:17:07.157Z,8.90
2018-11-02T17:19:35.411Z,8.80
2018-11-02T17:22:03.729Z,8.80
2018-11-02T17:24:32.967Z,8.80
2018-11-02T17:27:01.120Z,8.80
2018-11-02T17:29:29.337Z,8.70
2018-11-02T17:31:57.589Z,8.80
2018-11-02T17:34:25.849Z,8.80
2018-11-02T17:36:53.995Z,8.80
2018-11-02T17:39:22.180Z,8.80
2018-11-02T17:41:50.362Z,8.90
2018-11-02T17:44:18.469Z,8.90
2018-11-02T17:46:46.502Z,8.90
2018-11-02T17:49:14.866Z,8.90
2018-11-02T17:51:43.972Z,8.90
2018-11-02T17:54:12.171Z,9.00
2018-11-02T17:56:40.783Z,9.00
2018-11-02T17:59:08.973Z,9.00
2018-11-02T18:01:38.006Z,9.00
2018-11-02T18:04:06.257Z,9.00
2018-11-02T18:06:34.457Z,9.00
2018-11-02T18:09:03.658Z,8.90
2018-11-02T18:11:31.849Z,9.00
2018-11-02T18:13:59.935Z,9.00
2018-11-02T18:16:28.118Z,9.00
2018-11-02T18:18:57.320Z,9.00
2018-11-02T18:21:25.436Z,9.00
2018-11-02T18:23:53.699Z,9.00
2018-11-02T18:26:21.903Z,9.00
2018-11-02T18:28:50.277Z,9.00
2018-11-02T18:31:18.426Z,9.00
2018-11-02T18:33:46.541Z,9.10
2018-11-02T18:36:14.707Z,9.10
2018-11-02T18:38:42.873Z,9.10
2018-11-02T18:41:11.092Z,9.10
2018-11-02T18:43:39.443Z,9.10
2018-11-02T18:46:07.632Z,9.10
2018-11-02T18:48:35.702Z,9.10
2018-11-02T18:51:03.874Z,9.10
2018-11-02T18:53:32.063Z,9.00
2018-11-02T18:56:01.212Z,9.00
2018-11-02T18:58:29.345Z,9.00
2018-11-02T19:00:58.463Z,8.90
2018-11-02T19:03:26.559Z,8.90
2018-11-02T19:05:54.831Z,8.90
2018-11-02T19:08:22.968Z,8.80
2018-11-02T19:10:51.324Z,8.70
2018-11-02T19:13:19.578Z,8.70
2018-11-02T19:15:48.335Z,8.70
2018-11-02T19:18:16.717Z,8.80
2018-11-02T19:20:45.405Z,8.80
2018-11-02T19:23:13.635Z,8.80
2018-11-02T19:25:42.217Z,8.80
2018-11-02T19:28:10.401Z,8.80
2018-11-02T19:30:39.563Z,8.80
2018-11-02T19:33:07.850Z,8.80
2018-11-02T19:35:36.486Z,8.80
2018-11-02T19:38:04.874Z,8.80
2018-11-02T19:40:33.838Z,8.90
2018-11-02T19:43:02.385Z,8.90
2018-11-02T19:45:30.608Z,8.90
2018-11-02T19:48:02.861Z,8.90
2018-11-02T19:50:31.715Z,8.90
2018-11-02T19:53:00.017Z,8.90
2018-11-02T19:55:28.895Z,8.90
2018-11-02T19:57:57.302Z,9.00
2018-11-02T20:00:25.969Z,9.00
2018-11-02T20:02:57.187Z,9.00
2018-11-02T20:05:27.194Z,9.00
2018-11-02T20:07:55.567Z,9.00
2018-11-02T20:10:23.875Z,9.00
2018-11-02T20:12:52.381Z,9.00
2018-11-02T20:15:21.197Z,9.00
2018-11-02T20:17:49.454Z,9.00
2018-11-02T20:20:17.945Z,9.00
2018-11-02T20:22:46.300Z,9.00
2018-11-02T20:25:15.821Z,9.00
2018-11-02T20:27:44.169Z,9.00
2018-11-02T20:30:13.802Z,9.00
2018-11-02T20:32:42.621Z,9.00
2018-11-02T20:35:12.238Z,9.00
2018-11-02T20:37:40.695Z,9.00
2018-11-02T20:40:10.764Z,9.00
2018-11-02T20:42:39.013Z,9.00
2018-11-02T20:45:07.619Z,9.00
2018-11-02T20:47:40.897Z,9.00
2018-11-02T20:50:09.988Z,9.00
2018-11-02T20:52:38.201Z,9.00
2018-11-02T20:55:06.709Z,9.00
2018-11-02T20:57:35.198Z,9.00
2018-11-02T21:00:03.924Z,9.00
2018-11-02T21:02:32.323Z,9.00
2018-11-02T21:05:00.689Z,9.00
2018-11-02T21:07:28.925Z,8.90
2018-11-02T21:09:57.471Z,8.90
2018-11-02T21:12:26.264Z,8.90
2018-11-02T21:14:54.781Z,8.90
2018-11-02T21:17:22.954Z,8.90
2018-11-02T21:19:51.184Z,8.90
2018-11-02T21:22:19.606Z,8.90
2018-11-02T21:24:47.922Z,8.90
2018-11-02T21:27:17.200Z,8.90
2018-11-02T21:29:46.408Z,8.90
2018-11-02T21:32:14.604Z,8.90
2018-11-02T21:34:42.734Z,8.90
2018-11-02T21:37:10.895Z,8.90
2018-11-02T21:39:39.362Z,8.80
2018-11-02T21:42:08.774Z,8.80
2018-11-02T21:44:37.034Z,8.70
2018-11-02T21:47:05.566Z,8.80
2018-11-02T21:49:34.405Z,8.70
2018-11-02T21:52:02.513Z,8.70
2018-11-02T21:54:30.650Z,8.70
2018-11-02T21:56:58.837Z,8.70
2018-11-02T21:59:26.939Z,8.80
2018-11-02T22:01:55.073Z,8.90
2018-11-02T22:04:23.577Z,8.90
2018-11-02T22:06:52.475Z,8.90
2018-11-02T22:09:20.758Z,8.90
2018-11-02T22:11:49.636Z,8.90
2018-11-02T22:14:18.833Z,8.90
2018-11-02T22:16:47.215Z,8.80
2018-11-02T22:19:15.651Z,8.80
2018-11-02T22:21:43.937Z,8.70
2018-11-02T22:24:12.090Z,8.60
2018-11-02T22:26:40.409Z,8.50
2018-11-02T22:29:08.597Z,8.50
2018-11-02T22:31:36.938Z,8.50
2018-11-02T22:34:05.274Z,8.40
2018-11-02T22:36:33.568Z,8.40
2018-11-02T22:39:01.682Z,8.40
2018-11-02T22:41:31.011Z,8.40
2018-11-02T22:43:59.278Z,8.40
2018-11-02T22:46:27.585Z,8.40
2018-11-02T22:48:55.789Z,8.40
2018-11-02T22:51:24.565Z,8.40
2018-11-02T22:53:52.822Z,8.40
2018-11-02T22:56:21.053Z,8.50
2018-11-02T22:58:49.177Z,8.50
2018-11-02T23:01:22.725Z,8.50
2018-11-02T23:03:50.981Z,8.50
2018-11-02T23:06:19.133Z,8.40
2018-11-02T23:08:47.405Z,8.50
2018-11-02T23:11:15.629Z,8.50
2018-11-02T23:13:43.749Z,8.50
2018-11-02T23:16:11.882Z,8.50
2018-11-02T23:18:40.154Z,8.50
2018-11-02T23:21:08.298Z,8.60
2018-11-02T23:23:36.709Z,8.60
2018-11-02T23:26:05.093Z,8.60
2018-11-02T23:28:33.222Z,8.70
2018-11-02T23:31:01.561Z,8.70
2018-11-02T23:33:29.886Z,8.70
2018-11-02T23:35:57.956Z,8.70
2018-11-02T23:38:26.111Z,8.70
2018-11-02T23:40:55.379Z,8.70
2018-11-02T23:43:24.554Z,8.70
2018-11-02T23:45:53.022Z,8.70
2018-11-02T23:48:21.444Z,8.70
2018-11-02T23:50:50.945Z,8.70
2018-11-02T23:53:19.123Z,8.70
2018-11-02T23:55:47.609Z,8.70
2018-11-02T23:58:16.272Z,8.70
